sensor_id;sensor_type;location;lat;lon;timestamp;P1;durP1;ratioP1;P2;durP2;ratioP2
77214;SDS011;66210;53.282;9.864;2023-11-19T00:02:26;1.80;;;1.35;;
77214;SDS011;66210;53.282;9.864;2023-11-19T00:04:53;1.50;;;1.40;;
77214;SDS011;66210;53.282;9.864;2023-11-19T00:07:20;1.23;;;1.13;;
77214;SDS011;66210;53.282;9.864;2023-11-19T00:09:50;1.33;;;1.23;;
77214;SDS011;66210;53.282;9.864;2023-11-19T00:12:16;1.00;;;0.95;;
77214;SDS011;66210;53.282;9.864;2023-11-19T00:14:44;2.33;;;1.30;;
77214;SDS011;66210;53.282;9.864;2023-11-19T00:17:10;2.55;;;1.40;;
77214;SDS011;66210;53.282;9.864;2023-11-19T00:19:37;1.30;;;1.20;;
77214;SDS011;66210;53.282;9.864;2023-11-19T00:22:04;1.75;;;1.27;;
77214;SDS011;66210;53.282;9.864;2023-11-19T00:24:31;2.05;;;1.40;;
77214;SDS011;66210;53.282;9.864;2023-11-19T00:26:58;1.40;;;1.30;;
77214;SDS011;66210;53.282;9.864;2023-11-19T00:29:25;1.50;;;1.38;;
77214;SDS011;66210;53.282;9.864;2023-11-19T00:31:51;1.80;;;1.10;;
77214;SDS011;66210;53.282;9.864;2023-11-19T00:34:18;1.00;;;0.98;;
77214;SDS011;66210;53.282;9.864;2023-11-19T00:36:48;1.63;;;1.48;;
77214;SDS011;66210;53.282;9.864;2023-11-19T00:39:15;1.50;;;1.20;;
77214;SDS011;66210;53.282;9.864;2023-11-19T00:41:42;1.25;;;1.15;;
77214;SDS011;66210;53.282;9.864;2023-11-19T00:44:09;2.22;;;1.20;;
77214;SDS011;66210;53.282;9.864;2023-11-19T00:46:36;1.08;;;1.05;;
77214;SDS011;66210;53.282;9.864;2023-11-19T00:49:03;1.25;;;0.93;;
77214;SDS011;66210;53.282;9.864;2023-11-19T00:51:30;1.48;;;1.10;;
77214;SDS011;66210;53.282;9.864;2023-11-19T00:53:58;4.13;;;1.00;;
77214;SDS011;66210;53.282;9.864;2023-11-19T00:56:25;1.10;;;1.00;;
77214;SDS011;66210;53.282;9.864;2023-11-19T00:58:52;0.88;;;0.88;;
77214;SDS011;66210;53.282;9.864;2023-11-19T01:01:19;1.25;;;1.05;;
77214;SDS011;66210;53.282;9.864;2023-11-19T01:03:46;0.82;;;0.82;;
77214;SDS011;66210;53.282;9.864;2023-11-19T01:06:12;1.67;;;0.90;;
77214;SDS011;66210;53.282;9.864;2023-11-19T01:08:42;0.77;;;0.77;;
77214;SDS011;66210;53.282;9.864;2023-11-19T01:11:19;0.68;;;0.68;;
77214;SDS011;66210;53.282;9.864;2023-11-19T01:13:47;0.95;;;0.95;;
77214;SDS011;66210;53.282;9.864;2023-11-19T01:16:14;2.20;;;0.63;;
77214;SDS011;66210;53.282;9.864;2023-11-19T01:18:42;1.65;;;0.80;;
77214;SDS011;66210;53.282;9.864;2023-11-19T01:21:08;0.73;;;0.73;;
77214;SDS011;66210;53.282;9.864;2023-11-19T01:23:35;0.95;;;0.80;;
77214;SDS011;66210;53.282;9.864;2023-11-19T01:26:03;1.00;;;0.90;;
77214;SDS011;66210;53.282;9.864;2023-11-19T01:28:32;0.63;;;0.63;;
77214;SDS011;66210;53.282;9.864;2023-11-19T01:30:58;0.50;;;0.50;;
77214;SDS011;66210;53.282;9.864;2023-11-19T01:33:25;0.60;;;0.50;;
77214;SDS011;66210;53.282;9.864;2023-11-19T01:35:52;0.73;;;0.73;;
77214;SDS011;66210;53.282;9.864;2023-11-19T01:38:18;0.98;;;0.88;;
77214;SDS011;66210;53.282;9.864;2023-11-19T01:40:45;0.90;;;0.90;;
77214;SDS011;66210;53.282;9.864;2023-11-19T01:43:12;1.65;;;0.82;;
77214;SDS011;66210;53.282;9.864;2023-11-19T01:45:40;1.20;;;1.10;;
77214;SDS011;66210;53.282;9.864;2023-11-19T01:48:06;0.75;;;0.75;;
77214;SDS011;66210;53.282;9.864;2023-11-19T01:50:33;0.65;;;0.65;;
77214;SDS011;66210;53.282;9.864;2023-11-19T01:53:00;1.10;;;1.00;;
77214;SDS011;66210;53.282;9.864;2023-11-19T01:55:27;1.15;;;1.08;;
77214;SDS011;66210;53.282;9.864;2023-11-19T01:57:54;2.75;;;0.88;;
77214;SDS011;66210;53.282;9.864;2023-11-19T02:00:26;3.22;;;0.90;;
77214;SDS011;66210;53.282;9.864;2023-11-19T02:02:52;1.02;;;0.80;;
77214;SDS011;66210;53.282;9.864;2023-11-19T02:05:20;0.57;;;0.57;;
77214;SDS011;66210;53.282;9.864;2023-11-19T02:07:47;0.88;;;0.88;;
77214;SDS011;66210;53.282;9.864;2023-11-19T02:10:16;2.38;;;0.93;;
77214;SDS011;66210;53.282;9.864;2023-11-19T02:12:45;0.70;;;0.70;;
77214;SDS011;66210;53.282;9.864;2023-11-19T02:15:12;1.95;;;0.85;;
77214;SDS011;66210;53.282;9.864;2023-11-19T02:17:38;1.05;;;0.80;;
77214;SDS011;66210;53.282;9.864;2023-11-19T02:20:05;0.77;;;0.70;;
77214;SDS011;66210;53.282;9.864;2023-11-19T02:22:37;0.90;;;0.90;;
77214;SDS011;66210;53.282;9.864;2023-11-19T02:25:04;1.00;;;0.88;;
77214;SDS011;66210;53.282;9.864;2023-11-19T02:27:54;0.77;;;0.77;;
77214;SDS011;66210;53.282;9.864;2023-11-19T02:30:23;0.70;;;0.70;;
77214;SDS011;66210;53.282;9.864;2023-11-19T02:32:53;0.90;;;0.90;;
77214;SDS011;66210;53.282;9.864;2023-11-19T02:35:20;3.25;;;0.90;;
77214;SDS011;66210;53.282;9.864;2023-11-19T02:37:47;1.23;;;1.10;;
77214;SDS011;66210;53.282;9.864;2023-11-19T02:40:14;0.90;;;0.90;;
77214;SDS011;66210;53.282;9.864;2023-11-19T02:42:41;0.68;;;0.68;;
77214;SDS011;66210;53.282;9.864;2023-11-19T02:45:08;1.00;;;1.00;;
77214;SDS011;66210;53.282;9.864;2023-11-19T02:47:40;1.10;;;1.00;;
77214;SDS011;66210;53.282;9.864;2023-11-19T02:50:11;1.08;;;0.98;;
77214;SDS011;66210;53.282;9.864;2023-11-19T02:52:41;1.00;;;1.00;;
77214;SDS011;66210;53.282;9.864;2023-11-19T02:55:08;0.93;;;0.93;;
77214;SDS011;66210;53.282;9.864;2023-11-19T02:57:36;1.17;;;1.10;;
77214;SDS011;66210;53.282;9.864;2023-11-19T03:00:03;3.20;;;0.90;;
77214;SDS011;66210;53.282;9.864;2023-11-19T03:02:39;1.30;;;1.08;;
77214;SDS011;66210;53.282;9.864;2023-11-19T03:05:11;0.90;;;0.90;;
77214;SDS011;66210;53.282;9.864;2023-11-19T03:07:41;1.08;;;1.00;;
77214;SDS011;66210;53.282;9.864;2023-11-19T03:10:11;1.15;;;1.08;;
77214;SDS011;66210;53.282;9.864;2023-11-19T03:12:40;1.15;;;1.10;;
77214;SDS011;66210;53.282;9.864;2023-11-19T03:15:08;2.58;;;1.08;;
77214;SDS011;66210;53.282;9.864;2023-11-19T03:17:38;1.00;;;1.00;;
77214;SDS011;66210;53.282;9.864;2023-11-19T03:20:07;0.90;;;0.90;;
77214;SDS011;66210;53.282;9.864;2023-11-19T03:22:41;0.90;;;0.90;;
77214;SDS011;66210;53.282;9.864;2023-11-19T03:25:08;1.20;;;1.20;;
77214;SDS011;66210;53.282;9.864;2023-11-19T03:27:38;1.10;;;1.00;;
77214;SDS011;66210;53.282;9.864;2023-11-19T03:30:08;1.20;;;1.10;;
77214;SDS011;66210;53.282;9.864;2023-11-19T03:32:38;1.02;;;0.93;;
77214;SDS011;66210;53.282;9.864;2023-11-19T03:35:05;1.40;;;1.30;;
77214;SDS011;66210;53.282;9.864;2023-11-19T03:37:35;1.38;;;1.27;;
77214;SDS011;66210;53.282;9.864;2023-11-19T03:40:03;4.18;;;1.20;;
77214;SDS011;66210;53.282;9.864;2023-11-19T03:42:31;3.63;;;1.60;;
77214;SDS011;66210;53.282;9.864;2023-11-19T03:44:57;2.05;;;1.70;;
77214;SDS011;66210;53.282;9.864;2023-11-19T03:47:24;2.15;;;1.83;;
77214;SDS011;66210;53.282;9.864;2023-11-19T03:49:51;2.65;;;1.90;;
77214;SDS011;66210;53.282;9.864;2023-11-19T03:52:18;6.13;;;2.28;;
77214;SDS011;66210;53.282;9.864;2023-11-19T03:54:46;2.35;;;1.90;;
77214;SDS011;66210;53.282;9.864;2023-11-19T03:57:13;3.25;;;1.95;;
77214;SDS011;66210;53.282;9.864;2023-11-19T03:59:40;2.97;;;2.45;;
77214;SDS011;66210;53.282;9.864;2023-11-19T04:02:07;5.65;;;3.55;;
77214;SDS011;66210;53.282;9.864;2023-11-19T04:04:34;6.45;;;4.80;;
77214;SDS011;66210;53.282;9.864;2023-11-19T04:07:01;6.15;;;4.50;;
77214;SDS011;66210;53.282;9.864;2023-11-19T04:09:29;9.10;;;5.47;;
77214;SDS011;66210;53.282;9.864;2023-11-19T04:11:56;8.10;;;5.88;;
77214;SDS011;66210;53.282;9.864;2023-11-19T04:14:24;12.75;;;6.13;;
77214;SDS011;66210;53.282;9.864;2023-11-19T04:16:51;10.45;;;6.35;;
77214;SDS011;66210;53.282;9.864;2023-11-19T04:19:18;9.80;;;6.28;;
77214;SDS011;66210;53.282;9.864;2023-11-19T04:21:48;13.07;;;6.53;;
77214;SDS011;66210;53.282;9.864;2023-11-19T04:24:15;11.20;;;6.72;;
77214;SDS011;66210;53.282;9.864;2023-11-19T04:26:42;12.55;;;6.78;;
77214;SDS011;66210;53.282;9.864;2023-11-19T04:29:11;9.30;;;6.72;;
77214;SDS011;66210;53.282;9.864;2023-11-19T04:31:39;11.43;;;7.25;;
77214;SDS011;66210;53.282;9.864;2023-11-19T04:34:06;9.35;;;7.13;;
77214;SDS011;66210;53.282;9.864;2023-11-19T04:36:33;12.30;;;7.00;;
77214;SDS011;66210;53.282;9.864;2023-11-19T04:39:00;12.25;;;7.70;;
77214;SDS011;66210;53.282;9.864;2023-11-19T04:41:27;12.23;;;7.88;;
77214;SDS011;66210;53.282;9.864;2023-11-19T04:43:54;15.88;;;7.80;;
77214;SDS011;66210;53.282;9.864;2023-11-19T04:46:21;10.52;;;7.47;;
77214;SDS011;66210;53.282;9.864;2023-11-19T04:48:50;12.43;;;7.95;;
77214;SDS011;66210;53.282;9.864;2023-11-19T04:51:17;14.75;;;8.32;;
77214;SDS011;66210;53.282;9.864;2023-11-19T04:53:44;9.98;;;7.38;;
77214;SDS011;66210;53.282;9.864;2023-11-19T04:56:11;15.68;;;8.07;;
77214;SDS011;66210;53.282;9.864;2023-11-19T04:58:38;16.25;;;8.05;;
77214;SDS011;66210;53.282;9.864;2023-11-19T05:01:05;23.60;;;8.63;;
77214;SDS011;66210;53.282;9.864;2023-11-19T05:03:32;14.13;;;7.82;;
77214;SDS011;66210;53.282;9.864;2023-11-19T05:05:59;10.18;;;7.55;;
77214;SDS011;66210;53.282;9.864;2023-11-19T05:08:26;12.57;;;8.57;;
77214;SDS011;66210;53.282;9.864;2023-11-19T05:10:53;12.13;;;8.10;;
77214;SDS011;66210;53.282;9.864;2023-11-19T05:13:20;11.95;;;7.88;;
77214;SDS011;66210;53.282;9.864;2023-11-19T05:15:47;13.75;;;8.32;;
77214;SDS011;66210;53.282;9.864;2023-11-19T05:18:14;12.75;;;8.13;;
77214;SDS011;66210;53.282;9.864;2023-11-19T05:20:40;23.88;;;9.00;;
77214;SDS011;66210;53.282;9.864;2023-11-19T05:23:07;12.50;;;7.80;;
77214;SDS011;66210;53.282;9.864;2023-11-19T05:25:47;19.25;;;7.68;;
77214;SDS011;66210;53.282;9.864;2023-11-19T05:28:14;17.88;;;8.23;;
77214;SDS011;66210;53.282;9.864;2023-11-19T05:30:41;29.23;;;9.35;;
77214;SDS011;66210;53.282;9.864;2023-11-19T05:33:08;17.10;;;8.52;;
77214;SDS011;66210;53.282;9.864;2023-11-19T05:35:34;21.65;;;8.85;;
77214;SDS011;66210;53.282;9.864;2023-11-19T05:38:02;16.70;;;7.95;;
77214;SDS011;66210;53.282;9.864;2023-11-19T05:40:29;21.60;;;8.57;;
77214;SDS011;66210;53.282;9.864;2023-11-19T05:42:55;19.23;;;8.48;;
77214;SDS011;66210;53.282;9.864;2023-11-19T05:45:22;20.67;;;8.50;;
77214;SDS011;66210;53.282;9.864;2023-11-19T05:47:49;26.50;;;9.60;;
77214;SDS011;66210;53.282;9.864;2023-11-19T05:50:16;19.77;;;8.15;;
77214;SDS011;66210;53.282;9.864;2023-11-19T05:52:42;25.10;;;8.13;;
77214;SDS011;66210;53.282;9.864;2023-11-19T05:55:09;26.33;;;8.48;;
77214;SDS011;66210;53.282;9.864;2023-11-19T05:57:37;17.85;;;7.60;;
77214;SDS011;66210;53.282;9.864;2023-11-19T06:00:12;18.60;;;7.35;;
77214;SDS011;66210;53.282;9.864;2023-11-19T06:02:39;22.15;;;8.18;;
77214;SDS011;66210;53.282;9.864;2023-11-19T06:05:06;17.25;;;7.43;;
77214;SDS011;66210;53.282;9.864;2023-11-19T06:07:33;33.03;;;8.75;;
77214;SDS011;66210;53.282;9.864;2023-11-19T06:10:00;22.65;;;7.90;;
77214;SDS011;66210;53.282;9.864;2023-11-19T06:12:26;26.13;;;8.63;;
77214;SDS011;66210;53.282;9.864;2023-11-19T06:14:54;17.88;;;7.85;;
77214;SDS011;66210;53.282;9.864;2023-11-19T06:17:20;16.60;;;7.10;;
77214;SDS011;66210;53.282;9.864;2023-11-19T06:19:47;24.02;;;7.25;;
77214;SDS011;66210;53.282;9.864;2023-11-19T06:22:13;16.25;;;7.55;;
77214;SDS011;66210;53.282;9.864;2023-11-19T06:24:40;23.10;;;7.03;;
77214;SDS011;66210;53.282;9.864;2023-11-19T06:27:07;20.50;;;7.45;;
77214;SDS011;66210;53.282;9.864;2023-11-19T06:29:34;20.90;;;6.78;;
77214;SDS011;66210;53.282;9.864;2023-11-19T06:32:00;20.15;;;7.07;;
77214;SDS011;66210;53.282;9.864;2023-11-19T06:34:41;20.38;;;6.60;;
77214;SDS011;66210;53.282;9.864;2023-11-19T06:37:07;23.40;;;6.53;;
77214;SDS011;66210;53.282;9.864;2023-11-19T06:39:35;26.17;;;6.97;;
77214;SDS011;66210;53.282;9.864;2023-11-19T06:42:02;19.65;;;6.15;;
77214;SDS011;66210;53.282;9.864;2023-11-19T06:44:28;20.42;;;6.20;;
77214;SDS011;66210;53.282;9.864;2023-11-19T06:46:55;28.73;;;7.30;;
77214;SDS011;66210;53.282;9.864;2023-11-19T06:49:22;21.38;;;7.40;;
77214;SDS011;66210;53.282;9.864;2023-11-19T06:51:49;20.48;;;6.38;;
77214;SDS011;66210;53.282;9.864;2023-11-19T06:54:16;17.92;;;6.15;;
77214;SDS011;66210;53.282;9.864;2023-11-19T06:56:42;19.10;;;6.20;;
77214;SDS011;66210;53.282;9.864;2023-11-19T06:59:10;20.95;;;5.95;;
77214;SDS011;66210;53.282;9.864;2023-11-19T07:01:36;16.45;;;6.18;;
77214;SDS011;66210;53.282;9.864;2023-11-19T07:04:03;23.52;;;5.80;;
77214;SDS011;66210;53.282;9.864;2023-11-19T07:06:36;16.63;;;5.03;;
77214;SDS011;66210;53.282;9.864;2023-11-19T07:09:03;22.45;;;5.55;;
77214;SDS011;66210;53.282;9.864;2023-11-19T07:11:40;12.75;;;4.72;;
77214;SDS011;66210;53.282;9.864;2023-11-19T07:14:08;18.63;;;4.65;;
77214;SDS011;66210;53.282;9.864;2023-11-19T07:16:35;16.73;;;4.80;;
77214;SDS011;66210;53.282;9.864;2023-11-19T07:19:05;24.58;;;5.40;;
77214;SDS011;66210;53.282;9.864;2023-11-19T07:21:32;18.40;;;4.82;;
77214;SDS011;66210;53.282;9.864;2023-11-19T07:24:00;24.05;;;4.75;;
77214;SDS011;66210;53.282;9.864;2023-11-19T07:26:26;20.83;;;5.03;;
77214;SDS011;66210;53.282;9.864;2023-11-19T07:28:53;24.48;;;5.05;;
77214;SDS011;66210;53.282;9.864;2023-11-19T07:31:21;28.55;;;5.00;;
77214;SDS011;66210;53.282;9.864;2023-11-19T07:33:48;20.30;;;4.07;;
77214;SDS011;66210;53.282;9.864;2023-11-19T07:36:15;22.77;;;4.28;;
77214;SDS011;66210;53.282;9.864;2023-11-19T07:38:42;19.75;;;3.97;;
77214;SDS011;66210;53.282;9.864;2023-11-19T07:41:09;19.45;;;3.60;;
77214;SDS011;66210;53.282;9.864;2023-11-19T07:46:10;25.48;;;4.22;;
77214;SDS011;66210;53.282;9.864;2023-11-19T07:48:39;26.52;;;3.90;;
77214;SDS011;66210;53.282;9.864;2023-11-19T07:51:06;27.38;;;4.00;;
77214;SDS011;66210;53.282;9.864;2023-11-19T07:53:33;21.63;;;3.95;;
77214;SDS011;66210;53.282;9.864;2023-11-19T07:56:00;19.35;;;4.05;;
77214;SDS011;66210;53.282;9.864;2023-11-19T07:58:27;17.80;;;3.00;;
77214;SDS011;66210;53.282;9.864;2023-11-19T08:00:54;18.60;;;3.53;;
77214;SDS011;66210;53.282;9.864;2023-11-19T08:03:21;21.33;;;3.78;;
77214;SDS011;66210;53.282;9.864;2023-11-19T08:05:51;29.08;;;4.53;;
77214;SDS011;66210;53.282;9.864;2023-11-19T08:08:18;24.05;;;3.85;;
77214;SDS011;66210;53.282;9.864;2023-11-19T08:10:44;22.67;;;4.00;;
77214;SDS011;66210;53.282;9.864;2023-11-19T08:13:11;22.20;;;5.18;;
77214;SDS011;66210;53.282;9.864;2023-11-19T08:15:38;26.45;;;5.10;;
77214;SDS011;66210;53.282;9.864;2023-11-19T08:18:05;27.15;;;4.35;;
77214;SDS011;66210;53.282;9.864;2023-11-19T08:20:33;26.35;;;4.38;;
77214;SDS011;66210;53.282;9.864;2023-11-19T08:23:02;25.23;;;5.07;;
77214;SDS011;66210;53.282;9.864;2023-11-19T08:25:30;20.88;;;3.33;;
77214;SDS011;66210;53.282;9.864;2023-11-19T08:27:57;31.48;;;3.95;;
77214;SDS011;66210;53.282;9.864;2023-11-19T08:30:24;25.05;;;3.53;;
77214;SDS011;66210;53.282;9.864;2023-11-19T08:32:51;25.50;;;4.57;;
77214;SDS011;66210;53.282;9.864;2023-11-19T08:35:18;28.00;;;3.97;;
77214;SDS011;66210;53.282;9.864;2023-11-19T08:37:45;25.38;;;3.88;;
77214;SDS011;66210;53.282;9.864;2023-11-19T08:40:12;24.13;;;4.10;;
77214;SDS011;66210;53.282;9.864;2023-11-19T08:42:41;29.13;;;4.28;;
77214;SDS011;66210;53.282;9.864;2023-11-19T08:45:08;23.95;;;4.53;;
77214;SDS011;66210;53.282;9.864;2023-11-19T08:47:37;30.63;;;4.60;;
77214;SDS011;66210;53.282;9.864;2023-11-19T08:50:04;25.25;;;3.28;;
77214;SDS011;66210;53.282;9.864;2023-11-19T08:52:32;32.08;;;5.00;;
77214;SDS011;66210;53.282;9.864;2023-11-19T08:55:01;22.85;;;3.90;;
77214;SDS011;66210;53.282;9.864;2023-11-19T08:57:28;31.65;;;4.80;;
77214;SDS011;66210;53.282;9.864;2023-11-19T08:59:55;30.00;;;3.85;;
77214;SDS011;66210;53.282;9.864;2023-11-19T09:02:21;27.15;;;4.45;;
77214;SDS011;66210;53.282;9.864;2023-11-19T09:04:48;28.77;;;4.22;;
77214;SDS011;66210;53.282;9.864;2023-11-19T09:07:20;28.25;;;4.32;;
77214;SDS011;66210;53.282;9.864;2023-11-19T09:09:47;29.83;;;4.03;;
77214;SDS011;66210;53.282;9.864;2023-11-19T09:12:14;19.85;;;3.60;;
77214;SDS011;66210;53.282;9.864;2023-11-19T09:14:41;27.33;;;3.75;;
77214;SDS011;66210;53.282;9.864;2023-11-19T09:17:08;27.83;;;3.90;;
77214;SDS011;66210;53.282;9.864;2023-11-19T09:19:36;30.25;;;5.47;;
77214;SDS011;66210;53.282;9.864;2023-11-19T09:22:03;28.63;;;5.15;;
77214;SDS011;66210;53.282;9.864;2023-11-19T09:24:30;28.75;;;5.22;;
77214;SDS011;66210;53.282;9.864;2023-11-19T09:26:57;23.67;;;4.07;;
77214;SDS011;66210;53.282;9.864;2023-11-19T09:29:24;36.38;;;4.50;;
77214;SDS011;66210;53.282;9.864;2023-11-19T09:31:51;24.27;;;4.03;;
77214;SDS011;66210;53.282;9.864;2023-11-19T09:34:18;22.33;;;3.35;;
77214;SDS011;66210;53.282;9.864;2023-11-19T09:36:44;28.13;;;4.65;;
77214;SDS011;66210;53.282;9.864;2023-11-19T09:39:12;31.70;;;4.57;;
77214;SDS011;66210;53.282;9.864;2023-11-19T09:41:44;31.42;;;4.07;;
77214;SDS011;66210;53.282;9.864;2023-11-19T09:44:11;25.75;;;3.53;;
77214;SDS011;66210;53.282;9.864;2023-11-19T09:46:39;35.45;;;4.65;;
77214;SDS011;66210;53.282;9.864;2023-11-19T09:49:08;28.13;;;5.07;;
77214;SDS011;66210;53.282;9.864;2023-11-19T09:51:36;19.95;;;3.78;;
77214;SDS011;66210;53.282;9.864;2023-11-19T09:54:03;41.55;;;5.07;;
77214;SDS011;66210;53.282;9.864;2023-11-19T09:56:30;25.73;;;4.20;;
77214;SDS011;66210;53.282;9.864;2023-11-19T09:58:58;32.47;;;3.60;;
77214;SDS011;66210;53.282;9.864;2023-11-19T10:01:26;24.90;;;4.53;;
77214;SDS011;66210;53.282;9.864;2023-11-19T10:03:55;26.45;;;3.70;;
77214;SDS011;66210;53.282;9.864;2023-11-19T10:06:22;25.77;;;4.50;;
77214;SDS011;66210;53.282;9.864;2023-11-19T10:08:51;25.67;;;3.92;;
77214;SDS011;66210;53.282;9.864;2023-11-19T10:11:18;30.08;;;4.85;;
77214;SDS011;66210;53.282;9.864;2023-11-19T10:13:45;24.95;;;4.57;;
77214;SDS011;66210;53.282;9.864;2023-11-19T10:16:14;25.02;;;4.50;;
77214;SDS011;66210;53.282;9.864;2023-11-19T10:18:45;30.20;;;3.67;;
77214;SDS011;66210;53.282;9.864;2023-11-19T10:21:19;30.50;;;5.00;;
77214;SDS011;66210;53.282;9.864;2023-11-19T10:23:53;26.85;;;4.45;;
77214;SDS011;66210;53.282;9.864;2023-11-19T10:26:23;35.40;;;5.43;;
77214;SDS011;66210;53.282;9.864;2023-11-19T10:28:50;33.00;;;5.25;;
77214;SDS011;66210;53.282;9.864;2023-11-19T10:31:17;25.02;;;4.22;;
77214;SDS011;66210;53.282;9.864;2023-11-19T10:33:45;28.35;;;3.45;;
77214;SDS011;66210;53.282;9.864;2023-11-19T10:36:12;24.92;;;3.63;;
77214;SDS011;66210;53.282;9.864;2023-11-19T10:38:39;19.25;;;3.35;;
77214;SDS011;66210;53.282;9.864;2023-11-19T10:41:07;18.30;;;4.28;;
77214;SDS011;66210;53.282;9.864;2023-11-19T10:43:43;23.40;;;4.88;;
77214;SDS011;66210;53.282;9.864;2023-11-19T10:46:14;28.35;;;4.32;;
77214;SDS011;66210;53.282;9.864;2023-11-19T10:48:41;27.75;;;4.35;;
77214;SDS011;66210;53.282;9.864;2023-11-19T10:51:08;23.58;;;3.78;;
77214;SDS011;66210;53.282;9.864;2023-11-19T10:53:35;27.83;;;3.55;;
77214;SDS011;66210;53.282;9.864;2023-11-19T10:56:04;29.25;;;4.75;;
77214;SDS011;66210;53.282;9.864;2023-11-19T10:58:38;30.73;;;4.95;;
77214;SDS011;66210;53.282;9.864;2023-11-19T11:01:13;22.35;;;3.92;;
77214;SDS011;66210;53.282;9.864;2023-11-19T11:03:43;29.17;;;3.97;;
77214;SDS011;66210;53.282;9.864;2023-11-19T11:06:12;22.58;;;3.85;;
77214;SDS011;66210;53.282;9.864;2023-11-19T11:08:40;30.58;;;4.70;;
77214;SDS011;66210;53.282;9.864;2023-11-19T11:11:07;27.40;;;4.85;;
77214;SDS011;66210;53.282;9.864;2023-11-19T11:13:36;33.75;;;4.97;;
77214;SDS011;66210;53.282;9.864;2023-11-19T11:16:06;23.55;;;4.57;;
77214;SDS011;66210;53.282;9.864;2023-11-19T11:18:34;29.42;;;4.18;;
77214;SDS011;66210;53.282;9.864;2023-11-19T11:21:03;33.25;;;4.15;;
77214;SDS011;66210;53.282;9.864;2023-11-19T11:27:07;26.85;;;4.70;;
77214;SDS011;66210;53.282;9.864;2023-11-19T11:32:52;37.17;;;5.07;;
77214;SDS011;66210;53.282;9.864;2023-11-19T11:35:29;24.27;;;3.92;;
77214;SDS011;66210;53.282;9.864;2023-11-19T11:38:08;24.77;;;4.10;;
77214;SDS011;66210;53.282;9.864;2023-11-19T11:40:35;19.85;;;4.00;;
77214;SDS011;66210;53.282;9.864;2023-11-19T11:43:03;28.35;;;4.35;;
77214;SDS011;66210;53.282;9.864;2023-11-19T11:45:35;28.95;;;4.05;;
77214;SDS011;66210;53.282;9.864;2023-11-19T11:48:10;25.92;;;3.95;;
77214;SDS011;66210;53.282;9.864;2023-11-19T11:50:49;17.00;;;3.35;;
77214;SDS011;66210;53.282;9.864;2023-11-19T11:53:17;24.60;;;3.72;;
77214;SDS011;66210;53.282;9.864;2023-11-19T11:58:36;25.08;;;4.03;;
77214;SDS011;66210;53.282;9.864;2023-11-19T12:01:05;21.25;;;3.53;;
77214;SDS011;66210;53.282;9.864;2023-11-19T12:03:34;27.52;;;4.00;;
77214;SDS011;66210;53.282;9.864;2023-11-19T12:06:05;22.83;;;3.40;;
77214;SDS011;66210;53.282;9.864;2023-11-19T12:08:33;16.20;;;2.90;;
77214;SDS011;66210;53.282;9.864;2023-11-19T12:11:18;20.65;;;3.65;;
77214;SDS011;66210;53.282;9.864;2023-11-19T12:13:46;15.00;;;3.15;;
77214;SDS011;66210;53.282;9.864;2023-11-19T12:16:20;22.95;;;4.25;;
77214;SDS011;66210;53.282;9.864;2023-11-19T12:18:48;17.73;;;4.03;;
77214;SDS011;66210;53.282;9.864;2023-11-19T12:21:28;23.90;;;4.53;;
77214;SDS011;66210;53.282;9.864;2023-11-19T12:23:59;18.42;;;3.47;;
77214;SDS011;66210;53.282;9.864;2023-11-19T12:26:35;21.13;;;3.63;;
77214;SDS011;66210;53.282;9.864;2023-11-19T12:29:05;21.88;;;3.55;;
77214;SDS011;66210;53.282;9.864;2023-11-19T12:34:06;20.25;;;3.45;;
77214;SDS011;66210;53.282;9.864;2023-11-19T12:36:33;19.73;;;3.70;;
77214;SDS011;66210;53.282;9.864;2023-11-19T12:39:01;20.75;;;3.35;;
77214;SDS011;66210;53.282;9.864;2023-11-19T12:41:28;15.75;;;3.42;;
77214;SDS011;66210;53.282;9.864;2023-11-19T12:44:08;22.08;;;4.00;;
77214;SDS011;66210;53.282;9.864;2023-11-19T12:46:35;18.33;;;3.10;;
77214;SDS011;66210;53.282;9.864;2023-11-19T12:49:02;26.38;;;4.28;;
77214;SDS011;66210;53.282;9.864;2023-11-19T12:51:32;19.00;;;3.70;;
77214;SDS011;66210;53.282;9.864;2023-11-19T12:54:00;21.13;;;3.75;;
77214;SDS011;66210;53.282;9.864;2023-11-19T12:56:26;27.30;;;4.53;;
77214;SDS011;66210;53.282;9.864;2023-11-19T12:58:53;25.60;;;4.45;;
77214;SDS011;66210;53.282;9.864;2023-11-19T13:01:20;17.77;;;3.38;;
77214;SDS011;66210;53.282;9.864;2023-11-19T13:03:47;23.05;;;4.25;;
77214;SDS011;66210;53.282;9.864;2023-11-19T13:06:18;31.77;;;5.00;;
77214;SDS011;66210;53.282;9.864;2023-11-19T13:08:48;21.33;;;3.10;;
77214;SDS011;66210;53.282;9.864;2023-11-19T13:11:31;22.67;;;3.75;;
77214;SDS011;66210;53.282;9.864;2023-11-19T13:14:02;20.08;;;3.85;;
77214;SDS011;66210;53.282;9.864;2023-11-19T13:16:31;24.65;;;3.72;;
77214;SDS011;66210;53.282;9.864;2023-11-19T13:18:59;31.13;;;4.15;;
77214;SDS011;66210;53.282;9.864;2023-11-19T13:21:27;23.23;;;4.80;;
77214;SDS011;66210;53.282;9.864;2023-11-19T13:23:54;29.05;;;4.35;;
77214;SDS011;66210;53.282;9.864;2023-11-19T13:26:21;28.23;;;4.13;;
77214;SDS011;66210;53.282;9.864;2023-11-19T13:28:48;20.17;;;3.50;;
77214;SDS011;66210;53.282;9.864;2023-11-19T13:31:15;27.02;;;4.13;;
77214;SDS011;66210;53.282;9.864;2023-11-19T13:33:43;18.48;;;3.60;;
77214;SDS011;66210;53.282;9.864;2023-11-19T13:36:09;25.85;;;3.75;;
77214;SDS011;66210;53.282;9.864;2023-11-19T13:38:41;21.35;;;3.70;;
77214;SDS011;66210;53.282;9.864;2023-11-19T13:41:10;18.73;;;4.03;;
77214;SDS011;66210;53.282;9.864;2023-11-19T13:43:38;28.20;;;4.43;;
77214;SDS011;66210;53.282;9.864;2023-11-19T13:46:05;23.00;;;4.13;;
77214;SDS011;66210;53.282;9.864;2023-11-19T13:48:32;24.23;;;3.97;;
77214;SDS011;66210;53.282;9.864;2023-11-19T13:50:59;25.15;;;4.13;;
77214;SDS011;66210;53.282;9.864;2023-11-19T13:53:26;25.50;;;4.38;;
77214;SDS011;66210;53.282;9.864;2023-11-19T13:55:53;29.95;;;4.65;;
77214;SDS011;66210;53.282;9.864;2023-11-19T13:58:20;21.77;;;4.57;;
77214;SDS011;66210;53.282;9.864;2023-11-19T14:00:46;21.42;;;3.60;;
77214;SDS011;66210;53.282;9.864;2023-11-19T14:03:13;23.15;;;4.25;;
77214;SDS011;66210;53.282;9.864;2023-11-19T14:05:40;25.15;;;3.75;;
77214;SDS011;66210;53.282;9.864;2023-11-19T14:08:08;25.88;;;4.35;;
77214;SDS011;66210;53.282;9.864;2023-11-19T14:10:51;25.60;;;3.85;;
77214;SDS011;66210;53.282;9.864;2023-11-19T14:13:19;23.40;;;3.85;;
77214;SDS011;66210;53.282;9.864;2023-11-19T14:15:45;22.92;;;3.80;;
77214;SDS011;66210;53.282;9.864;2023-11-19T14:18:16;25.52;;;4.22;;
77214;SDS011;66210;53.282;9.864;2023-11-19T14:20:43;17.48;;;3.33;;
77214;SDS011;66210;53.282;9.864;2023-11-19T14:23:10;18.30;;;3.85;;
77214;SDS011;66210;53.282;9.864;2023-11-19T14:25:37;18.63;;;3.20;;
77214;SDS011;66210;53.282;9.864;2023-11-19T14:28:04;19.90;;;3.30;;
77214;SDS011;66210;53.282;9.864;2023-11-19T14:30:32;18.90;;;3.60;;
77214;SDS011;66210;53.282;9.864;2023-11-19T14:33:00;22.45;;;3.13;;
77214;SDS011;66210;53.282;9.864;2023-11-19T14:35:28;19.17;;;3.58;;
77214;SDS011;66210;53.282;9.864;2023-11-19T14:37:56;20.67;;;3.72;;
77214;SDS011;66210;53.282;9.864;2023-11-19T14:40:23;25.73;;;4.80;;
77214;SDS011;66210;53.282;9.864;2023-11-19T14:43:08;21.77;;;2.95;;
77214;SDS011;66210;53.282;9.864;2023-11-19T14:45:38;19.27;;;3.38;;
77214;SDS011;66210;53.282;9.864;2023-11-19T14:48:15;13.73;;;2.90;;
77214;SDS011;66210;53.282;9.864;2023-11-19T14:50:44;21.98;;;4.13;;
77214;SDS011;66210;53.282;9.864;2023-11-19T14:53:13;17.63;;;4.13;;
77214;SDS011;66210;53.282;9.864;2023-11-19T14:55:41;21.45;;;2.70;;
77214;SDS011;66210;53.282;9.864;2023-11-19T14:58:08;14.43;;;3.03;;
77214;SDS011;66210;53.282;9.864;2023-11-19T15:00:39;17.35;;;2.63;;